Fairfax, IA

12:06 AM CST on March 06, 2015 (GMT -0600)
IADOT Cedar Rapids (US 30) | Change Station
CLOSE
Current Station
Personal Weather Station
Location: Cedar Rapids, IA
Elevation: 807 ft
Nearby Weather Stations

Elev 807 ft 41.93 °N, 91.68 °W | Updated 46 minutes ago

Partly Cloudy
Partly Cloudy
4 °F
Feels Like -4 °F
N
4
Wind Variable Wind from East
Gusts 6.0 mph

Today
High -- | Low -- °F
--% Chance of Precip.
Yesterday
High -- | Low -- °F
Precip. -- in
6:34 AM 6:03 PM
Full, 100% visible
Pressure 30.52 in
Visibility 10.0 miles
Clouds Clear
Windchill -4 °F
Dew Point -3 °F
Humidity 72%
Rainfall in
Snow Depth Not available.
UV 0 out of 12
Pollen .50 out of 12
Air Quality Not available.
Flu Activity Not available.
METAR KCID 060552Z 16007KT 10SM CLR M18/M21 A3045 RMK AO2 SLP333 T11831206 11139 21194 411221228 58017

More Conditions Fewer Conditions

Pressure 30.52 in
Visibility 10.0 miles
Clouds Clear
Windchill -4 °F
Dew Point -3 °F
Humidity 72%
Rainfall in
Snow Depth Not available.
UV 0 out of 12
Pollen .50 out of 12
Air Quality Not available.
Flu Activity Not available.
METAR KCID 060552Z 16007KT 10SM CLR M18/M21 A3045 RMK AO2 SLP333 T11831206 11139 21194 411221228 58017

More Conditions Fewer Conditions

10-Day Weather Forecast

Almanac

Astronomy

Mar. 06, 2015 Rise Set
Actual Time
Civil Twilight
Nautical Twilight
Astronomical Twilight
Moon
Length of Visible Light
Length of Day
Tomorrow will be .
, % of the Moon is Illuminated

Today's Extremes

State Highs State Lows

Community

WunderPhotos

Upload Photos

1,803,194 photos uploaded!

WunderBlogs® & News

Nearby

Air Quality

  Air Quality AQ Index Pollutant
Not available.

Snow Depth

Station Depth Elevation

Earthquake Activity

City Distance Mag. Time & Date
Minimum magnitude displayed is 2.5.

Coastal Water Temperatures

Place Temperature

Nearby Weather Stations